Time;durP1;ratioP1;P1;durP2;ratioP2;P2;SDS_P1;SDS_P2;PMS_P1;PMS_P2;Temp;Humidity;BMP_temperature;BMP_pressure;BME280_temperature;BME280_humidity;BME280_pressure;Samples;Min_cycle;Max_cycle;Signal;HPM_P1;HPM_P2
2022/03/25 00:04:13;;;;;;;6.82;4.63;;;;;;;18.66;45.24;99976.84;5109173;28;20043;-94
2022/03/25 00:07:07;;;;;;;6.72;4.82;;;;;;;18.65;45.18;99969.84;5121511;28;20074;-94
2022/03/25 00:13:05;;;;;;;5.72;4.50;;;;;;;18.62;44.92;99976.13;5121265;28;20061;-94
2022/03/25 00:19:19;;;;;;;6.97;4.97;;;;;;;18.61;45.29;99974.41;5120112;28;20027;-94
2022/03/25 00:21:47;;;;;;;7.45;4.95;;;;;;;18.61;44.84;99981.47;5087123;28;20024;-94
2022/03/25 00:24:16;;;;;;;6.72;5.15;;;;;;;18.60;44.98;99987.69;5103451;28;20051;-94
2022/03/25 00:26:49;;;;;;;5.97;5.00;;;;;;;18.59;45.01;99986.81;5103729;28;20028;-94
2022/03/25 00:29:16;;;;;;;7.28;5.13;;;;;;;18.59;45.23;99983.34;5104762;28;20088;-95
2022/03/25 00:32:10;;;;;;;7.35;5.07;;;;;;;18.58;45.27;99984.22;5103043;28;20028;-95
2022/03/25 00:34:41;;;;;;;6.20;4.55;;;;;;;18.58;45.07;99994.81;5114872;28;20024;-94
2022/03/25 00:37:21;;;;;;;6.18;4.70;;;;;;;18.56;44.99;99994.03;5104346;28;20040;-94
2022/03/25 00:39:53;;;;;;;6.90;5.10;;;;;;;18.56;44.77;99992.25;5119354;28;20023;-93
2022/03/25 00:42:47;;;;;;;6.72;5.20;;;;;;;18.56;45.30;99994.03;5116688;28;20016;-95
2022/03/25 00:48:37;;;;;;;8.00;5.07;;;;;;;18.52;44.90;99980.94;5121657;28;20094;-95
2022/03/25 00:51:18;;;;;;;6.05;4.88;;;;;;;18.54;45.02;99978.22;5102719;28;20104;-95
2022/03/25 00:53:44;;;;;;;6.93;5.20;;;;;;;18.54;45.01;99977.38;5087819;28;20012;-94
2022/03/25 00:56:28;;;;;;;6.68;5.10;;;;;;;18.52;45.11;99967.75;5120303;28;20016;-93
2022/03/25 00:58:53;;;;;;;7.05;4.63;;;;;;;18.52;44.94;99975.66;5119061;28;20105;-93
2022/03/25 01:01:45;;;;;;;6.78;4.80;;;;;;;18.51;45.24;99962.50;5103127;28;20032;-92
2022/03/25 01:08:45;;;;;;;5.95;4.43;;;;;;;18.49;44.79;99965.22;5097458;28;20116;-94
2022/03/25 01:14:48;;;;;;;6.32;4.72;;;;;;;18.46;45.05;99960.03;5080207;28;20093;-95
2022/03/25 01:17:17;;;;;;;6.80;4.28;;;;;;;18.46;45.10;99951.28;5096081;28;20451;-93
2022/03/25 01:20:13;;;;;;;6.00;4.75;;;;;;;18.46;45.11;99953.91;5045274;28;20017;-93
2022/03/25 01:26:07;;;;;;;5.63;4.25;;;;;;;18.45;44.98;99950.41;5079699;28;20048;-93
2022/03/25 01:29:01;;;;;;;7.25;5.00;;;;;;;18.44;44.95;99939.91;5061252;28;20037;-93
2022/03/25 01:31:34;;;;;;;5.97;4.78;;;;;;;18.42;44.90;99942.63;5079094;28;20009;-94
2022/03/25 01:34:08;;;;;;;6.70;5.03;;;;;;;18.42;44.72;99932.06;5095881;28;20041;-93
2022/03/25 01:36:42;;;;;;;6.45;4.70;;;;;;;18.41;44.98;99932.97;5095567;28;20060;-93
2022/03/25 01:39:14;;;;;;;6.30;4.65;;;;;;;18.42;45.01;99932.06;5079121;28;20033;-94
2022/03/25 01:41:41;;;;;;;6.25;5.07;;;;;;;18.40;44.69;99933.88;5095407;28;20021;-94
2022/03/25 01:44:11;;;;;;;6.75;5.13;;;;;;;18.41;44.71;99934.75;5078602;28;20081;-94
2022/03/25 01:46:47;;;;;;;6.60;4.68;;;;;;;18.40;45.03;99922.47;5094746;28;20025;-93
2022/03/25 01:49:20;;;;;;;6.55;5.38;;;;;;;18.38;44.88;99919.88;5094761;28;20017;-93
2022/03/25 01:52:00;;;;;;;7.03;5.10;;;;;;;18.38;45.00;99917.25;5095036;28;20033;-94
2022/03/25 01:54:53;;;;;;;6.25;4.72;;;;;;;18.38;44.95;99919.88;5078861;28;20049;-94
2022/03/25 01:57:31;;;;;;;6.28;4.57;;;;;;;18.38;44.75;99922.53;5074522;28;20037;-95
2022/03/25 01:59:58;;;;;;;6.25;4.55;;;;;;;18.37;45.02;99918.19;5060726;28;20119;-94
2022/03/25 02:02:29;;;;;;;6.93;5.10;;;;;;;18.36;44.72;99911.19;5078041;28;20021;-92
2022/03/25 02:05:06;;;;;;;6.35;4.78;;;;;;;18.33;44.59;99917.44;5077101;28;20017;-94
2022/03/25 02:07:54;;;;;;;6.07;5.03;;;;;;;18.34;44.93;99916.53;5077935;28;20040;-94
2022/03/25 02:10:26;;;;;;;6.18;4.88;;;;;;;18.34;44.64;99918.28;5051264;28;20059;-93
2022/03/25 02:13:38;;;;;;;6.75;5.10;;;;;;;18.33;44.85;99914.81;5077514;28;20089;-93
2022/03/25 02:16:25;;;;;;;6.35;4.47;;;;;;;18.34;44.75;99910.38;5061142;28;20044;-94
2022/03/25 02:19:18;;;;;;;7.28;5.45;;;;;;;18.33;44.86;99912.16;5061306;28;20028;-94
2022/03/25 02:21:52;;;;;;;6.10;4.63;;;;;;;18.31;44.58;99907.88;5064232;28;20100;-93
2022/03/25 02:24:43;;;;;;;5.97;4.70;;;;;;;18.32;44.72;99912.22;5077598;28;20056;-94
2022/03/25 02:27:28;;;;;;;6.45;4.72;;;;;;;18.31;44.75;99908.72;5062167;28;20032;-93
2022/03/25 02:29:55;;;;;;;6.25;4.63;;;;;;;18.30;44.79;99906.16;5115354;28;20450;-94
2022/03/25 02:32:50;;;;;;;6.43;4.50;;;;;;;18.29;44.83;99899.13;5099078;28;20021;-93
2022/03/25 02:35:43;;;;;;;5.75;4.22;;;;;;;18.30;44.98;99900.88;5115654;28;20048;-96
2022/03/25 02:38:20;;;;;;;7.10;5.20;;;;;;;18.30;44.91;99900.88;5115497;28;20056;-94
2022/03/25 02:40:49;;;;;;;7.13;5.25;;;;;;;18.24;44.52;99897.56;5098063;28;20020;-94
2022/03/25 02:43:17;;;;;;;5.93;4.75;;;;;;;18.26;44.77;99892.22;5097910;28;20025;-94
2022/03/25 02:45:51;;;;;;;7.43;5.30;;;;;;;18.25;44.58;99880.78;5114768;28;20021;-94
2022/03/25 02:48:30;;;;;;;6.03;4.93;;;;;;;18.24;44.76;99892.28;5114954;28;20054;-95
2022/03/25 02:51:00;;;;;;;6.53;4.78;;;;;;;18.24;44.78;99887.00;5113527;28;20024;-94
2022/03/25 02:53:29;;;;;;;7.35;4.63;;;;;;;18.23;44.62;99885.28;5115360;28;20029;-93
2022/03/25 02:55:58;;;;;;;7.57;5.05;;;;;;;18.23;44.91;99890.56;5114726;28;20025;-94
2022/03/25 03:01:59;;;;;;;6.30;5.00;;;;;;;18.22;44.92;99893.28;5098489;28;20032;-94
2022/03/25 03:04:27;;;;;;;6.55;4.90;;;;;;;18.22;44.91;99882.72;5114626;28;20088;-94
2022/03/25 03:07:01;;;;;;;7.07;5.03;;;;;;;18.21;44.88;99886.28;5098995;28;20025;-94
2022/03/25 03:09:28;;;;;;;5.95;4.32;;;;;;;18.21;44.75;99886.28;5098437;28;20031;-95
2022/03/25 03:15:22;;;;;;;6.63;4.55;;;;;;;18.19;44.61;99878.41;5099161;28;20043;-94
2022/03/25 03:17:52;;;;;;;6.18;3.97;;;;;;;18.17;44.78;99879.41;5115250;28;20024;-95
2022/03/25 03:20:32;;;;;;;7.07;4.88;;;;;;;18.17;44.43;99885.56;5098341;28;20005;-95
2022/03/25 03:23:05;;;;;;;6.43;4.65;;;;;;;18.16;44.56;99891.72;5099925;28;20032;-95
2022/03/25 03:25:38;;;;;;;6.15;4.75;;;;;;;18.17;44.82;99893.47;5109834;28;20021;-94
2022/03/25 03:30:58;;;;;;;6.72;4.78;;;;;;;18.16;44.58;99902.28;5115202;28;20044;-94
2022/03/25 03:33:26;;;;;;;6.28;4.85;;;;;;;18.12;44.45;99892.81;5103171;28;20021;-94
2022/03/25 03:35:54;;;;;;;6.78;5.22;;;;;;;18.11;44.94;99897.22;5118040;28;20043;-94
2022/03/25 03:44:56;;;;;;;6.78;5.05;;;;;;;18.10;44.30;99884.06;5100580;28;20051;-93
2022/03/25 03:50:57;;;;;;;7.10;5.00;;;;;;;18.09;44.83;99890.28;5060434;28;20097;-93
2022/03/25 03:53:51;;;;;;;6.65;4.75;;;;;;;18.07;44.76;99892.97;5059076;28;20041;-93
2022/03/25 03:56:32;;;;;;;6.35;4.70;;;;;;;18.08;44.81;99892.09;5044215;28;20066;-95
2022/03/25 03:59:00;;;;;;;5.38;4.53;;;;;;;18.07;44.81;99892.13;5036269;28;20029;-94
2022/03/25 04:01:26;;;;;;;7.28;5.13;;;;;;;18.05;44.77;99892.16;5043830;28;20101;-94
2022/03/25 04:03:53;;;;;;;6.78;4.93;;;;;;;18.07;44.56;99894.78;5060231;28;20041;-94
2022/03/25 04:06:22;;;;;;;6.88;5.00;;;;;;;18.05;44.45;99891.28;5060019;28;20025;-94
2022/03/25 04:08:53;;;;;;;7.65;5.47;;;;;;;18.04;44.68;99882.53;5058767;28;20117;-94
2022/03/25 04:11:31;;;;;;;6.28;4.60;;;;;;;18.04;44.50;99884.28;5051034;28;20053;-93
2022/03/25 04:13:59;;;;;;;6.10;4.70;;;;;;;18.04;44.81;99884.28;5062565;28;20056;-94
2022/03/25 04:16:28;;;;;;;6.25;4.95;;;;;;;18.03;44.72;99883.47;5080302;28;20094;-94
2022/03/25 04:19:04;;;;;;;6.03;4.45;;;;;;;18.04;44.65;99879.00;5106512;28;20036;-93
2022/03/25 04:21:32;;;;;;;7.15;5.10;;;;;;;18.03;44.55;99877.31;5117051;28;20058;-95
2022/03/25 04:23:59;;;;;;;6.10;4.78;;;;;;;18.01;44.70;99881.81;5100466;28;20008;-94
2022/03/25 04:26:27;;;;;;;6.82;5.03;;;;;;;18.01;44.84;99892.38;5117383;28;20032;-92
2022/03/25 04:28:56;;;;;;;7.43;4.95;;;;;;;18.01;44.75;99895.84;5066646;28;20066;-94
2022/03/25 04:31:23;;;;;;;6.32;4.95;;;;;;;18.00;44.79;99895.94;5117242;28;20024;-94
2022/03/25 04:33:50;;;;;;;6.63;4.93;;;;;;;17.98;44.84;99896.81;5082716;28;20092;-93
2022/03/25 04:36:17;;;;;;;6.90;5.07;;;;;;;18.00;44.80;99890.66;5116363;28;20023;-94
2022/03/25 04:39:14;;;;;;;6.40;4.82;;;;;;;17.98;44.46;99898.63;5099516;28;20028;-93
2022/03/25 04:45:03;;;;;;;7.88;4.88;;;;;;;17.98;44.58;99891.53;5099164;28;20047;-93
2022/03/25 04:50:53;;;;;;;7.35;5.90;;;;;;;17.95;44.73;99891.69;5099276;28;20047;-93
2022/03/25 04:53:18;;;;;;;6.47;4.85;;;;;;;17.94;44.88;99903.19;5116055;28;20055;-93
2022/03/25 04:55:46;;;;;;;6.18;5.05;;;;;;;17.94;44.74;99894.38;5116080;28;20032;-93
2022/03/25 04:58:14;;;;;;;6.55;5.07;;;;;;;17.94;44.71;99894.38;5099457;28;20090;-93
2022/03/25 05:01:11;;;;;;;6.50;4.93;;;;;;;17.94;44.82;99900.53;5099305;28;20040;-94
2022/03/25 05:03:42;;;;;;;6.68;4.90;;;;;;;17.94;44.68;99903.19;5114620;28;20036;-93
2022/03/25 05:06:14;;;;;;;6.35;5.10;;;;;;;17.91;44.54;99900.66;5099034;28;20043;-93
2022/03/25 05:08:42;;;;;;;6.63;5.22;;;;;;;17.93;44.74;99904.06;5115897;28;20449;-93
2022/03/25 05:11:21;;;;;;;6.60;5.05;;;;;;;17.90;44.54;99909.50;5113865;28;20052;-94
2022/03/25 05:13:54;;;;;;;7.85;5.32;;;;;;;17.90;44.48;99904.22;5099506;28;20017;-94
2022/03/25 05:16:27;;;;;;;7.53;5.50;;;;;;;17.89;44.51;99894.59;5116198;28;20040;-94
2022/03/25 05:19:24;;;;;;;6.45;5.13;;;;;;;17.90;44.62;99904.22;5099171;28;20057;-94
2022/03/25 05:21:51;;;;;;;8.73;6.15;;;;;;;17.89;44.54;99902.50;5116706;28;20051;-95
2022/03/25 05:24:21;;;;;;;6.18;4.88;;;;;;;17.89;44.91;99902.50;5099706;28;20009;-93
2022/03/25 05:27:09;;;;;;;7.05;5.60;;;;;;;17.88;44.85;99900.78;5116353;28;20016;-94
2022/03/25 05:29:36;;;;;;;7.10;5.22;;;;;;;17.88;44.57;99895.50;5116434;28;20032;-95
2022/03/25 05:32:19;;;;;;;7.32;5.97;;;;;;;17.87;44.80;99898.22;5119283;28;20016;-95
2022/03/25 05:34:47;;;;;;;7.28;5.43;;;;;;;17.83;44.68;99893.03;5119340;28;20043;-95
2022/03/25 05:37:21;;;;;;;8.38;5.57;;;;;;;17.86;44.87;99899.97;5100647;28;20020;-95
2022/03/25 05:39:48;;;;;;;7.28;5.40;;;;;;;17.83;44.69;99898.31;5101597;28;20024;-94
2022/03/25 05:42:21;;;;;;;7.70;5.70;;;;;;;17.85;44.64;99898.25;5077600;28;20041;-93
2022/03/25 05:48:50;;;;;;;8.27;6.25;;;;;;;17.82;44.95;99901.88;5058910;28;20064;-93
2022/03/25 05:51:29;;;;;;;7.07;5.55;;;;;;;17.80;44.92;99908.16;5061484;28;20033;-95
2022/03/25 06:00:42;;;;;;;7.53;5.38;;;;;;;17.79;44.92;99923.16;5076254;28;20040;-94
2022/03/25 06:03:11;;;;;;;7.00;5.47;;;;;;;17.77;44.77;99919.69;5096783;28;20036;-94
2022/03/25 06:06:09;;;;;;;7.45;5.88;;;;;;;17.77;45.07;99911.78;5069442;28;20029;-94
2022/03/25 06:12:07;;;;;;;7.13;5.90;;;;;;;17.77;44.87;99924.13;5064262;28;20052;-95
2022/03/25 06:14:48;;;;;;;6.53;5.30;;;;;;;17.75;44.89;99925.94;5118653;28;20036;-94
2022/03/25 06:17:15;;;;;;;7.13;5.93;;;;;;;17.75;44.76;99925.94;5085045;28;20045;-95
2022/03/25 06:26:30;;;;;;;8.25;5.88;;;;;;;17.71;45.13;99931.38;5075615;28;20027;-94
2022/03/25 06:28:58;;;;;;;10.18;5.43;;;;;;;17.73;44.84;99938.34;5059659;28;20104;-94
2022/03/25 06:31:43;;;;;;;10.00;5.90;;;;;;;17.70;45.11;99929.66;5059610;28;20017;-93
2022/03/25 06:34:10;;;;;;;7.20;5.68;;;;;;;17.73;44.94;99941.00;5056958;28;20055;-93
2022/03/25 06:36:36;;;;;;;7.40;5.88;;;;;;;17.71;45.11;99941.06;5076166;28;20037;-94
2022/03/25 06:39:10;;;;;;;7.20;6.30;;;;;;;17.70;44.92;99934.94;5075806;28;20048;-93
2022/03/25 06:41:35;;;;;;;7.45;5.75;;;;;;;17.70;45.04;99934.94;5027414;28;20013;-93
2022/03/25 06:44:06;;;;;;;8.38;5.93;;;;;;;17.70;45.12;99934.94;5059756;28;20033;-94
2022/03/25 06:46:40;;;;;;;7.78;6.15;;;;;;;17.69;45.09;99938.47;5043799;28;20037;-93
2022/03/25 06:49:13;;;;;;;7.57;5.47;;;;;;;17.69;44.95;99935.81;5058323;28;20441;-94
2022/03/25 06:51:40;;;;;;;7.30;5.90;;;;;;;17.69;45.06;99933.19;5059163;28;20029;-94
2022/03/25 06:54:16;;;;;;;6.57;4.88;;;;;;;17.69;45.02;99938.47;5076582;28;20059;-93
2022/03/25 06:56:46;;;;;;;7.40;6.15;;;;;;;17.67;45.09;99929.75;5077313;28;20116;-94
2022/03/25 06:59:21;;;;;;;6.32;5.10;;;;;;;17.69;45.22;99937.63;5044726;28;20021;-94
2022/03/25 07:01:53;;;;;;;7.05;5.10;;;;;;;17.67;45.06;99929.75;5078092;28;20418;-93
2022/03/25 07:04:31;;;;;;;7.65;5.78;;;;;;;17.68;45.12;99936.75;5063868;28;20033;-94
2022/03/25 07:06:59;;;;;;;6.43;5.63;;;;;;;17.69;45.09;99938.47;5063702;28;20041;-94
2022/03/25 07:09:47;;;;;;;8.02;5.55;;;;;;;17.68;45.21;99935.91;5063361;28;20052;-93
2022/03/25 07:12:46;;;;;;;6.88;5.65;;;;;;;17.67;45.37;99945.59;5070399;28;20060;-94
2022/03/25 07:15:12;;;;;;;6.72;5.57;;;;;;;17.67;45.47;99929.75;5117853;28;20028;-94
2022/03/25 07:17:47;;;;;;;7.57;6.22;;;;;;;17.67;45.50;99950.88;5101832;28;20092;-93
2022/03/25 07:20:21;;;;;;;7.78;5.45;;;;;;;17.68;45.23;99938.53;5100816;28;20037;-93
2022/03/25 07:22:54;;;;;;;8.10;6.30;;;;;;;17.66;45.27;99935.97;5100336;28;20028;-94
2022/03/25 07:25:27;;;;;;;6.38;5.22;;;;;;;17.65;45.28;99951.84;5100476;28;20100;-94
2022/03/25 07:31:41;;;;;;;8.13;5.75;;;;;;;17.64;45.43;99956.28;5099617;28;20052;-94
2022/03/25 07:37:31;;;;;;;7.65;5.68;;;;;;;17.64;45.54;99956.28;5099705;28;20051;-93
2022/03/25 07:43:53;;;;;;;7.93;5.88;;;;;;;17.63;45.55;99949.25;5039962;28;20071;-94
2022/03/25 07:50:12;;;;;;;8.05;5.78;;;;;;;17.65;45.63;99946.56;5040198;28;20037;-93
2022/03/25 07:53:01;;;;;;;7.85;5.88;;;;;;;17.65;45.23;99958.00;5043784;28;20032;-94
2022/03/25 07:55:39;;;;;;;7.65;5.97;;;;;;;17.65;45.57;99965.03;5043028;28;20037;-94
2022/03/25 07:58:19;;;;;;;7.80;6.05;;;;;;;17.65;45.19;99958.00;5041257;28;20115;-94
2022/03/25 08:00:48;;;;;;;7.60;5.72;;;;;;;17.66;45.70;99957.06;5028071;28;20206;-93
2022/03/25 08:06:12;;;;;;;7.63;6.28;;;;;;;17.66;45.47;99949.16;5059983;28;20047;-94
2022/03/25 08:09:00;;;;;;;7.50;6.00;;;;;;;17.66;45.41;99959.72;5059273;28;20037;-93
2022/03/25 08:11:45;;;;;;;7.22;5.88;;;;;;;17.66;45.59;99949.16;5042117;28;20021;-94
2022/03/25 08:18:20;;;;;;;9.48;6.10;;;;;;;17.69;45.63;99966.66;5059433;28;20059;-93
2022/03/25 08:33:10;;;;;;;7.55;5.97;;;;;;;17.71;45.72;99957.75;5100545;28;20062;-95
2022/03/25 08:36:10;;;;;;;;;;;;;;;17.74;45.57;99955.91;5101885;28;20044;-94
2022/03/25 08:42:23;;;;;;;7.00;5.43;;;;;;;17.74;45.43;99964.69;5100671;28;20035;-94
2022/03/25 08:52:00;;;;;;;7.78;6.28;;;;;;;17.74;45.65;99961.19;5120249;28;20055;-94
2022/03/25 08:54:58;;;;;;;7.28;5.90;;;;;;;17.77;45.52;99964.56;5119800;28;20103;-94
2022/03/25 08:57:30;;;;;;;7.97;5.88;;;;;;;17.77;45.84;99966.34;5102441;28;20028;-93
2022/03/25 09:00:13;;;;;;;7.35;5.70;;;;;;;17.78;45.47;99954.88;5115619;28;20027;-95
2022/03/25 09:02:41;;;;;;;9.65;6.38;;;;;;;17.78;45.58;99965.44;5119607;28;20024;-95
2022/03/25 09:05:13;;;;;;;8.48;6.30;;;;;;;17.79;45.47;99967.16;5102205;28;20030;-93
2022/03/25 09:07:53;;;;;;;8.35;6.22;;;;;;;17.78;45.82;99968.91;5097926;28;20028;-94
2022/03/25 09:10:32;;;;;;;7.57;6.25;;;;;;;17.79;45.87;99968.03;5101939;28;20039;-94
2022/03/25 09:27:48;;;;;;;7.38;5.68;;;;;;;17.85;45.46;99957.22;5116427;28;20551;-93
2022/03/25 09:31:10;;;;;;;7.72;5.95;;;;;;;17.87;45.43;99956.28;5109241;28;20132;-94
2022/03/25 09:35:08;;;;;;;8.57;6.25;;;;;;;17.87;45.47;99949.22;5118129;28;20095;-94
2022/03/25 13:47:31;;;;;;;4.68;3.25;;;;;;;18.54;41.49;99743.00;6086822;23;20398;31
2022/03/25 13:50:21;;;;;;;6.80;3.50;;;;;;;18.55;42.28;99735.97;4924596;29;20060;-90
2022/03/25 13:56:36;;;;;;;5.15;3.38;;;;;;;18.57;41.20;99742.00;4923281;29;20044;-95
2022/03/25 13:59:42;;;;;;;5.43;3.42;;;;;;;18.57;41.40;99728.81;4907146;29;20049;-93
2022/03/25 14:15:38;;;;;;;6.05;3.55;;;;;;;18.55;41.30;99731.50;4942744;29;20053;-95
2022/03/25 14:18:17;;;;;;;6.05;3.20;;;;;;;18.56;40.83;99722.69;4895005;29;20044;-96
2022/03/25 14:20:44;;;;;;;4.78;3.35;;;;;;;18.57;40.61;99712.94;4910899;29;20039;-95
2022/03/25 14:23:25;;;;;;;4.72;3.13;;;;;;;18.56;40.99;99721.81;4910523;29;20012;-94
2022/03/25 14:26:05;;;;;;;6.00;3.67;;;;;;;18.57;40.67;99707.66;4926181;29;20032;-94
2022/03/25 14:28:40;;;;;;;6.50;3.53;;;;;;;18.57;39.48;99699.72;4925285;29;20028;-95
2022/03/25 14:34:39;;;;;;;7.40;3.28;;;;;;;18.59;40.53;99695.25;4942206;29;20062;-95
2022/03/25 14:37:27;;;;;;;5.68;3.50;;;;;;;18.59;40.15;99697.91;4925959;29;20012;-94
2022/03/25 14:40:03;;;;;;;6.00;3.30;;;;;;;18.60;38.88;99699.59;4925454;29;20016;-94
2022/03/25 14:42:54;;;;;;;6.40;3.33;;;;;;;18.60;39.01;99704.88;4941819;29;20106;-94
2022/03/25 14:45:29;;;;;;;6.45;3.15;;;;;;;18.59;40.38;99705.81;4939481;29;20028;-95
2022/03/25 14:48:16;;;;;;;6.22;3.47;;;;;;;18.60;38.43;99702.25;4941539;29;20070;-95
2022/03/25 14:54:14;;;;;;;6.00;3.15;;;;;;;18.60;37.93;99691.69;4923236;29;20085;-95
2022/03/25 14:56:42;;;;;;;7.05;3.97;;;;;;;18.60;37.02;99707.53;4906555;29;20108;-95
2022/03/25 15:17:06;;;;;;;4.88;3.00;;;;;;;18.59;37.27;99692.59;4999763;28;20107;-92
2022/03/25 15:22:56;;;;;;;5.65;3.10;;;;;;;18.59;39.18;99700.53;5001411;28;20077;-93
2022/03/25 15:25:37;;;;;;;4.63;2.95;;;;;;;18.58;37.15;99693.50;4986699;28;20043;-93
2022/03/25 15:28:21;;;;;;;5.78;2.80;;;;;;;18.60;36.92;99696.97;4985722;28;20098;-93
2022/03/25 15:36:16;;;;;;;5.47;2.83;;;;;;;18.61;36.87;99698.66;5003481;28;20054;-94
2022/03/25 15:42:07;;;;;;;4.00;2.30;;;;;;;18.62;38.35;99698.59;5003327;28;20038;-91
2022/03/25 15:45:21;;;;;;;5.57;3.20;;;;;;;18.61;39.53;99704.81;4986316;28;20086;-94
2022/03/25 15:47:49;;;;;;;5.22;3.08;;;;;;;18.62;39.33;99695.97;4953950;28;20023;-95
2022/03/25 15:51:06;;;;;;;5.03;2.78;;;;;;;18.62;39.20;99684.53;5288668;23;20040;-91
2022/03/25 15:57:22;;;;;;;4.45;2.75;;;;;;;18.63;39.83;99696.78;4963470;28;20066;-94
2022/03/25 15:59:51;;;;;;;6.20;2.72;;;;;;;18.63;38.87;99691.50;4947081;29;20035;-91
2022/03/25 16:02:21;;;;;;;4.40;2.70;;;;;;;18.62;39.86;99695.97;4932527;29;20038;-93
2022/03/25 16:04:53;;;;;;;5.85;3.17;;;;;;;18.62;39.69;99689.81;4962234;29;20043;-92
2022/03/25 16:07:26;;;;;;;4.57;2.63;;;;;;;18.63;40.24;99681.81;4915181;29;20027;-94
2022/03/25 16:18:05;;;;;;;5.13;2.70;;;;;;;18.63;40.58;99686.22;4867949;29;20049;-92
2022/03/25 16:38:23;;;;;;;6.85;3.28;;;;;;;18.64;40.02;99703.78;4868426;29;20052;-94
2022/03/25 16:40:49;;;;;;;5.38;2.78;;;;;;;18.65;40.67;99700.25;4868025;29;20717;-95
2022/03/25 16:43:24;;;;;;;5.82;3.25;;;;;;;18.64;40.51;99698.50;4867538;29;20025;-92
2022/03/25 16:46:26;;;;;;;4.72;3.05;;;;;;;18.65;40.56;99700.25;4866536;29;20018;-93
2022/03/25 16:48:51;;;;;;;5.32;3.42;;;;;;;18.66;40.62;99707.25;4868082;29;20115;-94
2022/03/25 16:55:16;;;;;;;4.72;2.85;;;;;;;18.66;41.01;99707.25;4886967;29;20112;-95
2022/03/25 16:58:04;;;;;;;4.75;2.97;;;;;;;18.65;40.68;99716.09;4885850;29;20056;-94
2022/03/25 17:00:44;;;;;;;5.57;3.35;;;;;;;18.66;40.46;99717.81;4907666;29;20112;-94
2022/03/25 17:03:26;;;;;;;5.10;3.10;;;;;;;18.67;39.99;99716.88;4943161;29;20031;-93
2022/03/25 17:06:12;;;;;;;4.50;3.13;;;;;;;18.68;40.62;99725.69;4927249;29;20119;-92
2022/03/25 17:08:42;;;;;;;5.47;3.15;;;;;;;18.68;40.00;99729.16;4927352;29;20031;-93
2022/03/25 17:11:13;;;;;;;5.47;3.50;;;;;;;18.67;40.79;99719.53;4941293;29;20055;-93
2022/03/25 17:13:40;;;;;;;5.40;3.22;;;;;;;18.67;40.55;99724.81;4926688;29;20012;-93
2022/03/25 17:20:01;;;;;;;5.10;3.17;;;;;;;18.67;40.62;99730.09;4943272;29;20082;-93
2022/03/25 17:50:09;;;;;;;7.28;3.42;;;;;;;18.66;41.12;99738.97;4917270;29;20048;-92
2022/03/25 17:52:35;;;;;;;4.35;3.20;;;;;;;18.65;40.99;99734.59;4904496;29;20052;-92
2022/03/25 17:55:03;;;;;;;4.82;3.15;;;;;;;18.65;40.88;99742.53;4956792;29;20036;-92
2022/03/25 17:57:29;;;;;;;5.22;3.25;;;;;;;18.65;41.08;99737.25;4939455;29;20090;-91
2022/03/25 17:59:57;;;;;;;5.78;3.80;;;;;;;18.64;40.93;99735.50;4956420;29;20019;-93
2022/03/25 18:02:24;;;;;;;5.43;3.35;;;;;;;18.63;41.35;99747.00;4957797;29;20022;-92
2022/03/25 18:04:51;;;;;;;6.97;3.78;;;;;;;18.63;40.64;99736.44;4942465;29;20031;-92
2022/03/25 18:07:16;;;;;;;5.85;3.60;;;;;;;18.65;41.18;99750.47;4925974;29;20039;-93
2022/03/25 18:09:47;;;;;;;6.07;3.70;;;;;;;18.65;40.94;99753.09;4957994;29;20036;-92
2022/03/25 18:12:13;;;;;;;5.65;3.50;;;;;;;18.66;41.33;99752.19;4941835;29;20031;-93
2022/03/25 18:14:41;;;;;;;5.13;3.50;;;;;;;18.68;41.20;99750.31;4946760;29;20051;-92
2022/03/25 18:17:22;;;;;;;5.43;3.60;;;;;;;18.67;41.01;99751.25;4948655;29;20038;-92
2022/03/25 18:19:50;;;;;;;4.78;3.28;;;;;;;18.67;41.45;99761.81;4929238;29;20032;-92
2022/03/25 18:22:16;;;;;;;7.05;3.40;;;;;;;18.68;40.89;99760.88;4956673;29;20043;-92
2022/03/25 18:24:42;;;;;;;5.55;3.60;;;;;;;18.67;41.27;99760.94;4956246;28;20032;-92
2022/03/25 18:27:11;;;;;;;5.50;3.60;;;;;;;18.66;41.23;99760.09;4939718;29;20059;-91
2022/03/25 18:29:39;;;;;;;6.25;3.47;;;;;;;18.66;41.03;99749.53;4950657;29;20054;-92
2022/03/25 18:32:10;;;;;;;5.47;3.85;;;;;;;18.67;41.40;99759.16;4952947;29;20079;-92
2022/03/25 18:34:35;;;;;;;6.22;3.53;;;;;;;18.68;41.27;99762.69;4957039;29;20027;-91
2022/03/25 18:37:02;;;;;;;6.35;4.00;;;;;;;18.67;41.05;99769.75;4932436;29;20365;-92
2022/03/25 18:39:54;;;;;;;6.90;3.58;;;;;;;18.68;41.32;99771.44;4947821;29;20062;-92
2022/03/25 18:42:20;;;;;;;6.50;3.45;;;;;;;18.70;40.78;99766.94;4932156;29;20039;-90
2022/03/25 18:44:46;;;;;;;8.95;3.67;;;;;;;18.73;40.85;99779.16;4913359;29;20050;-92
2022/03/25 18:47:12;;;;;;;7.57;4.00;;;;;;;18.72;41.22;99770.38;4953029;29;20039;-91
2022/03/25 18:49:39;;;;;;;7.28;4.45;;;;;;;18.73;41.00;99774.75;4958163;29;20023;-88
2022/03/25 18:52:05;;;;;;;8.50;4.18;;;;;;;18.73;41.04;99773.88;4929859;29;20122;-86
2022/03/25 18:54:32;;;;;;;9.70;4.00;;;;;;;18.72;41.17;99770.38;4948337;29;20031;-91
2022/03/25 18:57:11;;;;;;;9.98;4.40;;;;;;;18.73;40.95;99772.09;4973525;29;20026;-92
2022/03/25 18:59:37;;;;;;;5.22;3.58;;;;;;;18.73;40.53;99781.81;4958808;29;20037;-91
2022/03/25 19:02:07;;;;;;;7.57;4.45;;;;;;;18.72;41.09;99786.25;4955211;29;20102;-93
2022/03/25 19:04:35;;;;;;;6.93;4.00;;;;;;;18.73;41.06;99779.16;4954585;29;20044;-92
2022/03/25 19:07:03;;;;;;;7.57;3.97;;;;;;;18.72;41.27;99773.03;4960193;28;20042;-92
2022/03/25 19:09:30;;;;;;;7.85;3.97;;;;;;;18.72;40.88;99775.69;4956774;29;20047;-91
2022/03/25 19:11:58;;;;;;;6.43;4.22;;;;;;;18.73;40.90;99785.31;4957225;29;20038;-92
2022/03/25 19:14:25;;;;;;;6.93;4.03;;;;;;;18.72;41.06;99785.38;4965674;28;20027;-92
2022/03/25 19:16:51;;;;;;;7.00;4.40;;;;;;;18.72;41.27;99786.25;4958680;29;20030;-93
2022/03/25 19:19:16;;;;;;;6.65;4.55;;;;;;;18.73;40.90;99787.97;4940062;29;20055;-92
2022/03/25 19:21:42;;;;;;;7.63;4.70;;;;;;;18.72;40.98;99783.59;4934632;29;20067;-91
2022/03/25 19:24:08;;;;;;;6.88;4.25;;;;;;;18.73;40.86;99785.31;4939926;29;20027;-90
2022/03/25 19:26:34;;;;;;;6.57;4.50;;;;;;;18.72;40.67;99795.94;4942943;29;20031;-90
2022/03/25 19:29:00;;;;;;;5.90;4.15;;;;;;;18.71;41.05;99789.81;4943654;29;20031;-90
2022/03/25 19:31:26;;;;;;;6.43;3.75;;;;;;;18.71;40.99;99784.53;4943308;29;20381;-90
2022/03/25 19:33:53;;;;;;;6.22;4.32;;;;;;;18.71;41.07;99784.53;4943988;29;20042;-90
2022/03/25 19:36:20;;;;;;;6.03;3.88;;;;;;;18.73;40.86;99793.25;4951160;29;20465;-90
2022/03/25 19:38:46;;;;;;;5.40;4.05;;;;;;;18.72;41.09;99794.19;4976564;28;20024;-90
2022/03/25 19:41:13;;;;;;;5.90;4.38;;;;;;;18.73;41.09;99797.66;4969189;29;20023;-91
2022/03/25 19:43:39;;;;;;;6.20;4.43;;;;;;;18.73;41.11;99797.66;4968433;28;20043;-91
2022/03/25 19:46:07;;;;;;;6.20;3.88;;;;;;;18.72;40.96;99795.94;4959098;29;20046;-90
2022/03/25 19:48:40;;;;;;;10.05;4.47;;;;;;;18.70;41.45;99797.81;4955036;29;20099;-94
2022/03/25 19:51:13;;;;;;;7.30;3.90;;;;;;;18.67;41.61;99788.25;4929640;29;20059;-94
2022/03/25 19:53:47;;;;;;;6.75;4.15;;;;;;;18.68;41.74;99795.25;4958470;29;20054;-94
2022/03/25 19:56:17;;;;;;;7.25;4.43;;;;;;;18.68;41.74;99791.75;4967550;29;20027;-93
2022/03/25 19:58:54;;;;;;;7.97;4.50;;;;;;;18.67;41.80;99793.53;4977770;29;20031;-94
2022/03/25 20:03:52;;;;;;;7.28;4.25;;;;;;;18.66;41.94;99794.47;4976569;28;20062;-91
2022/03/25 20:06:17;;;;;;;6.57;4.03;;;;;;;18.66;42.03;99794.47;4958182;29;20054;-91
2022/03/25 20:09:06;;;;;;;5.90;3.70;;;;;;;18.68;41.77;99797.03;4959595;28;20039;-92
2022/03/25 20:11:33;;;;;;;7.30;4.00;;;;;;;18.70;41.71;99801.31;4954252;29;20031;-93
2022/03/25 20:13:59;;;;;;;6.88;4.60;;;;;;;18.71;42.21;99805.69;4943441;29;20063;-91
2022/03/25 20:16:28;;;;;;;6.63;3.88;;;;;;;18.70;41.78;99808.41;4938421;29;20094;-89
2022/03/25 20:19:06;;;;;;;6.28;3.95;;;;;;;18.70;41.99;99803.94;4962790;28;20095;-91
2022/03/25 20:21:31;;;;;;;7.28;4.47;;;;;;;18.71;42.16;99810.09;4937253;29;20492;-91
2022/03/25 20:23:57;;;;;;;7.15;4.20;;;;;;;18.70;42.07;99798.66;4951218;29;20027;-89
2022/03/25 20:26:23;;;;;;;6.32;3.67;;;;;;;18.72;41.92;99807.41;4942759;29;20020;-89
2022/03/25 20:28:49;;;;;;;6.40;4.07;;;;;;;18.73;41.94;99806.47;4942138;29;20027;-90
2022/03/25 20:31:15;;;;;;;6.32;4.45;;;;;;;18.74;42.09;99802.88;4950762;29;20466;-90